Terminal Aerodrome Forecast
Issued by NWS Tampa Bay Area, FL

Home | Current Version | Previous Version | Text Only | Print | Product List | Glossary On
Versions: 1 2 3 4 5 6 7 8 9 10 11 12 13 14
000
FTUS42 KTBW 172332
TAFSRQ
TAF
KSRQ 172332Z 1800/1824 21008KT P6SM FEW025 SCT250
     FM180400 VRB04KT P6SM SCT005 BKN200
     FM181100 17004KT P6SM FEW015 SCT250
     FM181500 24008KT P6SM SCT050 BKN250=

USA.gov is the U.S. government's official web portal to all federal, state and local government web resources and services.